createdAt,value
2022-11-14T09:43:43.099Z,30.65
2022-11-14T09:46:26.055Z,30.17
2022-11-14T09:48:53.963Z,27.58
2022-11-14T09:51:23.643Z,29.55
2022-11-14T09:54:05.321Z,26.75
2022-11-14T09:56:32.067Z,24.80
2022-11-14T09:58:59.108Z,25.95
2022-11-14T10:02:07.187Z,24.75
2022-11-14T10:04:46.504Z,25.15
2022-11-14T10:07:58.057Z,23.63
2022-11-14T10:10:43.319Z,25.60
2022-11-14T10:13:16.232Z,23.20
2022-11-14T10:15:53.625Z,23.75
2022-11-14T10:18:42.608Z,23.67
2022-11-14T10:21:24.189Z,22.27
2022-11-14T10:24:15.215Z,23.58
2022-11-14T10:27:03.859Z,23.33
2022-11-14T10:29:49.327Z,23.13
2022-11-14T10:32:31.119Z,22.23
2022-11-14T10:35:00.866Z,23.05
2022-11-14T10:37:37.812Z,26.75
2022-11-14T10:40:19.681Z,24.08
2022-11-14T10:42:54.841Z,25.50
2022-11-14T10:45:37.449Z,26.15
2022-11-14T10:48:13.545Z,21.92
2022-11-14T10:50:50.158Z,22.50
2022-11-14T10:53:42.347Z,21.27
2022-11-14T10:56:13.102Z,23.40
2022-11-14T10:58:48.308Z,27.48
2022-11-14T11:01:46.637Z,24.05
2022-11-14T11:04:22.233Z,22.88
2022-11-14T11:06:51.455Z,24.00
2022-11-14T11:09:45.518Z,21.55
2022-11-14T11:12:21.802Z,22.40
2022-11-14T11:15:08.446Z,21.63
2022-11-14T11:17:41.786Z,21.35
2022-11-14T11:20:35.230Z,22.80
2022-11-14T11:23:03.857Z,21.42
2022-11-14T11:25:32.223Z,22.53
2022-11-14T11:28:17.755Z,21.85
2022-11-14T11:30:59.641Z,22.73
2022-11-14T11:33:34.678Z,21.92
2022-11-14T11:36:20.217Z,21.75
2022-11-14T11:38:47.769Z,18.60
2022-11-14T11:42:06.125Z,21.15
2022-11-14T11:44:17.686Z,22.70
2022-11-14T11:46:56.622Z,21.85
2022-11-14T11:49:29.430Z,21.02
2022-11-14T11:51:57.848Z,19.50
2022-11-14T11:54:30.685Z,20.70
2022-11-14T11:57:10.192Z,19.38
2022-11-14T12:02:27.132Z,20.70
2022-11-14T12:04:57.365Z,23.02
2022-11-14T12:07:59.403Z,24.55
2022-11-14T12:10:32.971Z,19.52
2022-11-14T12:13:18.377Z,19.75
2022-11-14T12:16:13.342Z,19.30
2022-11-14T12:19:07.636Z,19.27
2022-11-14T12:21:58.371Z,17.58
2022-11-14T12:24:58.946Z,17.48
2022-11-14T12:27:35.457Z,18.02
2022-11-14T12:30:20.045Z,16.55
2022-11-14T12:32:57.715Z,18.52
2022-11-14T12:35:32.915Z,17.98
2022-11-14T12:38:03.316Z,18.38
2022-11-14T12:40:36.309Z,19.33
2022-11-14T12:43:04.679Z,19.10
2022-11-14T12:45:40.618Z,17.90
2022-11-14T12:48:25.771Z,17.70
2022-11-14T12:50:57.435Z,17.05
2022-11-14T12:53:40.359Z,16.27
2022-11-14T12:56:33.413Z,16.73
2022-11-14T12:59:24.694Z,16.88
2022-11-14T13:02:06.549Z,16.60
2022-11-14T13:04:39.165Z,17.25
2022-11-14T13:07:08.956Z,16.17
2022-11-14T13:09:42.263Z,16.63
2022-11-14T13:12:49.220Z,15.48
2022-11-14T13:16:04.264Z,15.40
2022-11-14T13:18:49.685Z,14.80
2022-11-14T13:21:44.745Z,14.32
2022-11-14T13:24:21.243Z,16.25
2022-11-14T13:26:50.903Z,15.60
2022-11-14T13:29:35.953Z,16.98
2022-11-14T13:32:02.870Z,15.60
2022-11-14T13:34:45.200Z,14.18
2022-11-14T13:37:14.826Z,13.88
2022-11-14T13:39:51.735Z,14.25
2022-11-14T13:42:46.231Z,16.17
2022-11-14T13:45:44.951Z,14.88
2022-11-14T13:48:30.057Z,13.95
2022-11-14T13:51:21.461Z,12.90
2022-11-14T13:53:48.500Z,12.95
2022-11-14T13:56:53.240Z,15.45
2022-11-14T13:59:48.801Z,13.43
2022-11-14T14:02:33.981Z,13.60
2022-11-14T14:05:10.826Z,13.52
2022-11-14T14:08:10.778Z,15.50
2022-11-14T14:11:06.332Z,14.48
2022-11-14T14:13:40.623Z,15.55
2022-11-14T14:16:28.036Z,14.63
2022-11-14T14:19:23.045Z,14.70
2022-11-14T14:21:59.118Z,15.00
2022-11-14T14:24:48.204Z,14.30
2022-11-14T14:27:37.013Z,13.40
2022-11-14T14:30:10.849Z,13.90
2022-11-14T14:32:38.312Z,13.05
2022-11-14T14:35:35.650Z,11.60
2022-11-14T14:38:13.119Z,12.68
2022-11-14T14:40:42.244Z,13.75
2022-11-14T14:43:23.144Z,13.48
2022-11-14T14:45:53.666Z,13.18
2022-11-14T14:48:26.906Z,13.27
2022-11-14T14:50:55.871Z,13.48
2022-11-14T14:53:27.976Z,13.43
2022-11-14T14:56:00.580Z,14.02
2022-11-14T14:58:31.040Z,13.23
2022-11-14T15:01:06.423Z,13.60
2022-11-14T15:03:39.926Z,13.40
2022-11-14T15:06:29.928Z,15.73
2022-11-14T15:09:00.033Z,15.45
2022-11-14T15:11:32.383Z,15.13
2022-11-14T15:14:01.645Z,15.15
2022-11-14T15:16:29.926Z,13.55
2022-11-14T15:18:58.454Z,14.43
2022-11-14T15:21:27.873Z,15.43
2022-11-14T15:24:22.278Z,16.33
2022-11-14T15:26:50.471Z,14.98
2022-11-14T15:29:21.576Z,13.20
2022-11-14T15:31:51.744Z,15.02
2022-11-14T15:34:36.627Z,14.40
2022-11-14T15:37:16.586Z,15.07
2022-11-14T15:39:44.584Z,17.27
2022-11-14T15:42:18.081Z,17.10
2022-11-14T15:44:56.880Z,18.52
2022-11-14T15:47:23.770Z,19.63
2022-11-14T15:50:06.579Z,18.77
2022-11-14T15:52:40.190Z,18.00
2022-11-14T15:55:17.423Z,19.05
2022-11-14T15:57:51.687Z,18.20
2022-11-14T16:00:23.425Z,17.00
2022-11-14T16:02:52.444Z,18.00
2022-11-14T16:05:25.074Z,18.25
2022-11-14T16:07:51.984Z,19.85
2022-11-14T16:10:24.169Z,19.42
2022-11-14T16:12:52.591Z,21.83
2022-11-14T16:15:21.246Z,19.42
2022-11-14T16:17:50.205Z,18.60
2022-11-14T16:20:29.612Z,18.27
2022-11-14T16:25:29.542Z,16.90
2022-11-14T16:27:56.271Z,18.52
2022-11-14T16:30:24.664Z,17.73
2022-11-14T16:32:54.494Z,18.55
2022-11-14T16:35:23.553Z,18.23
2022-11-14T16:37:50.662Z,18.92
2022-11-14T16:40:26.943Z,20.20
2022-11-14T16:42:58.887Z,20.45
2022-11-14T16:45:26.720Z,19.00
2022-11-14T16:47:53.592Z,18.95
2022-11-14T16:50:20.696Z,22.17
2022-11-14T16:52:48.822Z,55.55
2022-11-14T16:55:15.441Z,43.85
2022-11-14T16:57:42.035Z,36.38
2022-11-14T17:00:11.139Z,20.30
2022-11-14T17:02:39.859Z,22.63
2022-11-14T17:05:06.709Z,20.57
2022-11-14T17:07:33.601Z,21.85
2022-11-14T17:10:00.920Z,19.25
2022-11-14T17:12:28.573Z,18.00
2022-11-14T17:14:55.353Z,19.05
2022-11-14T17:17:22.105Z,19.48
2022-11-14T17:19:48.889Z,19.63
2022-11-14T17:22:17.292Z,17.48
2022-11-14T17:24:44.581Z,17.63
2022-11-14T17:27:12.956Z,28.90
2022-11-14T17:29:39.856Z,23.55
2022-11-14T17:32:06.812Z,21.00
2022-11-14T17:34:33.484Z,20.60
2022-11-14T17:37:00.088Z,20.25
2022-11-14T17:39:27.066Z,17.20
2022-11-14T17:41:53.866Z,21.20
2022-11-14T17:44:20.706Z,19.35
2022-11-14T17:46:48.321Z,18.70
2022-11-14T17:49:15.011Z,18.42
2022-11-14T17:51:41.631Z,19.48
2022-11-14T17:54:08.970Z,18.95
2022-11-14T17:56:35.608Z,19.67
2022-11-14T17:59:02.963Z,18.30
2022-11-14T18:01:31.459Z,18.90
2022-11-14T18:04:02.970Z,19.57
2022-11-14T18:06:33.777Z,18.02
2022-11-14T18:09:04.872Z,18.83
2022-11-14T18:11:31.544Z,19.45
2022-11-14T18:13:58.647Z,20.45
2022-11-14T18:16:31.308Z,23.65
2022-11-14T18:19:01.727Z,20.50
2022-11-14T18:21:28.673Z,23.83
2022-11-14T18:23:58.014Z,24.20
2022-11-14T18:26:30.434Z,25.75
2022-11-14T18:28:58.778Z,26.15
2022-11-14T18:31:25.704Z,23.60
2022-11-14T18:33:52.427Z,21.90
2022-11-14T18:36:19.860Z,19.90
2022-11-14T18:38:46.774Z,20.23
2022-11-14T18:41:15.488Z,19.98
2022-11-14T18:43:44.400Z,22.43
2022-11-14T18:46:15.993Z,22.77
2022-11-14T18:48:45.568Z,26.30
2022-11-14T18:53:40.156Z,22.30
2022-11-14T18:56:12.421Z,23.65
2022-11-14T18:58:40.029Z,25.80
2022-11-14T19:01:26.235Z,22.30
2022-11-14T19:03:57.949Z,22.55
2022-11-14T19:06:24.786Z,18.88
2022-11-14T19:08:55.608Z,18.23
2022-11-14T19:11:40.880Z,18.58
2022-11-14T19:14:07.457Z,20.52
2022-11-14T19:16:35.125Z,18.98
2022-11-14T19:19:02.291Z,17.73
2022-11-14T19:21:29.177Z,13.75
2022-11-14T19:23:56.117Z,14.05
2022-11-14T19:26:23.424Z,14.13
2022-11-14T19:28:50.149Z,13.57
2022-11-14T19:31:18.224Z,14.60
2022-11-14T19:33:45.544Z,11.40
2022-11-14T19:36:45.255Z,12.98
2022-11-14T19:39:08.540Z,8.85
2022-11-14T19:41:35.262Z,10.98
2022-11-14T19:44:02.939Z,9.70
2022-11-14T19:46:29.889Z,10.13
2022-11-14T19:49:00.253Z,9.43
2022-11-14T19:51:28.085Z,8.70
2022-11-14T19:53:56.117Z,8.02
2022-11-14T19:56:23.784Z,9.90
2022-11-14T19:58:51.944Z,9.50
2022-11-14T20:01:21.112Z,8.95
2022-11-14T20:03:52.081Z,7.95
2022-11-14T20:06:23.407Z,7.53
2022-11-14T20:08:50.817Z,7.72
2022-11-14T20:11:17.794Z,6.03
2022-11-14T20:13:45.434Z,7.25
2022-11-14T20:16:20.559Z,6.75
2022-11-14T20:18:59.075Z,6.50
2022-11-14T20:21:27.607Z,7.47
2022-11-14T20:23:54.354Z,8.85
2022-11-14T20:26:21.534Z,7.75
2022-11-14T20:28:52.050Z,9.27
2022-11-14T20:31:21.736Z,10.45
2022-11-14T20:33:49.817Z,10.27
2022-11-14T20:36:21.832Z,9.85
2022-11-14T20:38:49.035Z,9.43
2022-11-14T20:41:16.723Z,8.63
2022-11-14T20:43:43.605Z,7.80
2022-11-14T20:46:12.865Z,5.57
2022-11-14T20:48:40.454Z,5.53
2022-11-14T20:51:14.311Z,4.60
2022-11-14T20:53:41.844Z,5.20
2022-11-14T20:56:09.644Z,4.35
2022-11-14T20:58:36.423Z,4.80
2022-11-14T21:01:03.565Z,5.22
2022-11-14T21:03:30.450Z,4.60
2022-11-14T21:06:01.641Z,3.75
2022-11-14T21:08:29.621Z,4.10
2022-11-14T21:11:02.612Z,3.83
2022-11-14T21:13:48.428Z,3.25
2022-11-14T21:16:17.852Z,4.20
2022-11-14T21:21:17.687Z,3.53
2022-11-14T21:23:46.126Z,3.42
2022-11-14T21:26:14.320Z,3.30
2022-11-14T21:28:46.585Z,3.70
2022-11-14T21:31:34.842Z,3.08
2022-11-14T21:34:06.392Z,3.63
